sensor_id;sensor_type;location;lat;lon;timestamp;temperature;humidity
26035;DHT22;13809;48.632;11.576;2023-04-07T00:02:19;7.40;24.90
26035;DHT22;13809;48.632;11.576;2023-04-07T00:07:23;7.40;24.70
26035;DHT22;13809;48.632;11.576;2023-04-07T00:12:27;7.30;24.70
26035;DHT22;13809;48.632;11.576;2023-04-07T00:17:30;7.30;24.90
26035;DHT22;13809;48.632;11.576;2023-04-07T00:22:33;7.20;24.90
26035;DHT22;13809;48.632;11.576;2023-04-07T00:27:38;7.30;25.00
26035;DHT22;13809;48.632;11.576;2023-04-07T00:32:41;7.30;25.20
26035;DHT22;13809;48.632;11.576;2023-04-07T00:37:46;7.30;25.00
26035;DHT22;13809;48.632;11.576;2023-04-07T00:42:51;7.30;25.00
26035;DHT22;13809;48.632;11.576;2023-04-07T00:47:55;7.40;25.30
26035;DHT22;13809;48.632;11.576;2023-04-07T00:52:59;7.30;25.10
26035;DHT22;13809;48.632;11.576;2023-04-07T00:58:04;7.20;25.00
26035;DHT22;13809;48.632;11.576;2023-04-07T01:03:09;7.20;25.30
26035;DHT22;13809;48.632;11.576;2023-04-07T01:08:20;7.10;25.30
26035;DHT22;13809;48.632;11.576;2023-04-07T01:13:30;7.10;25.60
26035;DHT22;13809;48.632;11.576;2023-04-07T01:18:34;7.10;25.50
26035;DHT22;13809;48.632;11.576;2023-04-07T01:23:50;7.10;25.40
26035;DHT22;13809;48.632;11.576;2023-04-07T01:34:26;6.90;25.70
26035;DHT22;13809;48.632;11.576;2023-04-07T01:39:32;6.80;25.40
26035;DHT22;13809;48.632;11.576;2023-04-07T01:44:35;6.60;25.30
26035;DHT22;13809;48.632;11.576;2023-04-07T01:49:41;6.50;25.50
26035;DHT22;13809;48.632;11.576;2023-04-07T01:54:45;6.50;25.80
26035;DHT22;13809;48.632;11.576;2023-04-07T01:59:48;6.40;25.80
26035;DHT22;13809;48.632;11.576;2023-04-07T02:04:55;6.30;25.60
26035;DHT22;13809;48.632;11.576;2023-04-07T02:10:01;6.20;26.30
26035;DHT22;13809;48.632;11.576;2023-04-07T02:15:08;6.10;26.60
26035;DHT22;13809;48.632;11.576;2023-04-07T02:20:13;6.00;26.50
26035;DHT22;13809;48.632;11.576;2023-04-07T02:25:22;6.00;26.50
26035;DHT22;13809;48.632;11.576;2023-04-07T02:30:26;6.00;26.50
26035;DHT22;13809;48.632;11.576;2023-04-07T02:35:30;6.00;26.60
26035;DHT22;13809;48.632;11.576;2023-04-07T02:40:33;6.10;26.60
26035;DHT22;13809;48.632;11.576;2023-04-07T02:45:37;6.10;26.60
26035;DHT22;13809;48.632;11.576;2023-04-07T02:50:44;6.10;26.60
26035;DHT22;13809;48.632;11.576;2023-04-07T02:55:47;6.20;26.70
26035;DHT22;13809;48.632;11.576;2023-04-07T03:00:50;6.30;26.70
26035;DHT22;13809;48.632;11.576;2023-04-07T03:05:55;6.30;26.70
26035;DHT22;13809;48.632;11.576;2023-04-07T03:10:58;6.30;26.70
26035;DHT22;13809;48.632;11.576;2023-04-07T03:16:02;6.30;26.70
26035;DHT22;13809;48.632;11.576;2023-04-07T03:21:07;6.30;26.70
26035;DHT22;13809;48.632;11.576;2023-04-07T03:26:10;6.30;26.70
26035;DHT22;13809;48.632;11.576;2023-04-07T03:31:13;6.30;26.70
26035;DHT22;13809;48.632;11.576;2023-04-07T03:36:18;6.20;26.70
26035;DHT22;13809;48.632;11.576;2023-04-07T03:41:21;6.20;26.70
26035;DHT22;13809;48.632;11.576;2023-04-07T03:46:24;6.10;26.60
26035;DHT22;13809;48.632;11.576;2023-04-07T03:51:29;6.20;26.90
26035;DHT22;13809;48.632;11.576;2023-04-07T03:56:33;6.20;27.20
26035;DHT22;13809;48.632;11.576;2023-04-07T04:01:38;6.30;26.80
26035;DHT22;13809;48.632;11.576;2023-04-07T04:06:42;6.20;26.70
26035;DHT22;13809;48.632;11.576;2023-04-07T04:11:46;6.20;27.20
26035;DHT22;13809;48.632;11.576;2023-04-07T04:16:49;6.30;27.20
26035;DHT22;13809;48.632;11.576;2023-04-07T04:21:53;6.30;27.00
26035;DHT22;13809;48.632;11.576;2023-04-07T04:26:56;6.30;27.30
26035;DHT22;13809;48.632;11.576;2023-04-07T04:31:59;6.20;27.00
26035;DHT22;13809;48.632;11.576;2023-04-07T04:37:04;6.20;27.20
26035;DHT22;13809;48.632;11.576;2023-04-07T04:42:07;6.20;27.60
26035;DHT22;13809;48.632;11.576;2023-04-07T04:47:10;6.20;27.30
26035;DHT22;13809;48.632;11.576;2023-04-07T04:52:15;6.30;27.40
26035;DHT22;13809;48.632;11.576;2023-04-07T04:57:18;6.30;27.70
26035;DHT22;13809;48.632;11.576;2023-04-07T05:02:21;6.30;27.40
26035;DHT22;13809;48.632;11.576;2023-04-07T05:07:26;6.30;27.50
26035;DHT22;13809;48.632;11.576;2023-04-07T05:12:29;6.30;27.80
26035;DHT22;13809;48.632;11.576;2023-04-07T05:17:32;6.30;27.80
26035;DHT22;13809;48.632;11.576;2023-04-07T05:22:37;6.40;27.90
26035;DHT22;13809;48.632;11.576;2023-04-07T05:27:40;6.40;28.20
26035;DHT22;13809;48.632;11.576;2023-04-07T05:32:46;6.50;28.00
26035;DHT22;13809;48.632;11.576;2023-04-07T05:37:51;6.50;28.00
26035;DHT22;13809;48.632;11.576;2023-04-07T05:42:54;6.60;28.30
26035;DHT22;13809;48.632;11.576;2023-04-07T05:47:57;6.60;28.10
26035;DHT22;13809;48.632;11.576;2023-04-07T05:53:02;6.60;28.10
26035;DHT22;13809;48.632;11.576;2023-04-07T05:58:05;6.70;28.40
26035;DHT22;13809;48.632;11.576;2023-04-07T06:03:08;6.70;28.20
26035;DHT22;13809;48.632;11.576;2023-04-07T06:08:12;6.80;28.30
26035;DHT22;13809;48.632;11.576;2023-04-07T06:13:15;6.80;28.50
26035;DHT22;13809;48.632;11.576;2023-04-07T06:18:19;6.90;28.40
26035;DHT22;13809;48.632;11.576;2023-04-07T06:23:23;7.00;28.60
26035;DHT22;13809;48.632;11.576;2023-04-07T06:28:26;7.10;28.80
26035;DHT22;13809;48.632;11.576;2023-04-07T06:33:29;7.10;28.70
26035;DHT22;13809;48.632;11.576;2023-04-07T06:38:34;7.20;28.80
26035;DHT22;13809;48.632;11.576;2023-04-07T06:43:39;7.30;29.00
26035;DHT22;13809;48.632;11.576;2023-04-07T06:48:42;7.40;28.80
26035;DHT22;13809;48.632;11.576;2023-04-07T06:53:47;7.50;28.90
26035;DHT22;13809;48.632;11.576;2023-04-07T06:58:51;7.50;29.30
26035;DHT22;13809;48.632;11.576;2023-04-07T07:03:54;7.60;29.00
26035;DHT22;13809;48.632;11.576;2023-04-07T07:08:58;7.70;29.10
26035;DHT22;13809;48.632;11.576;2023-04-07T07:14:03;7.80;29.30
26035;DHT22;13809;48.632;11.576;2023-04-07T07:19:07;7.90;29.30
26035;DHT22;13809;48.632;11.576;2023-04-07T07:24:11;8.00;29.30
26035;DHT22;13809;48.632;11.576;2023-04-07T07:29:14;8.10;29.70
26035;DHT22;13809;48.632;11.576;2023-04-07T07:34:18;8.20;29.60
26035;DHT22;13809;48.632;11.576;2023-04-07T07:39:22;8.40;30.00
26035;DHT22;13809;48.632;11.576;2023-04-07T07:44:25;8.60;30.40
26035;DHT22;13809;48.632;11.576;2023-04-07T07:49:28;8.70;30.30
26035;DHT22;13809;48.632;11.576;2023-04-07T07:54:33;9.00;30.50
26035;DHT22;13809;48.632;11.576;2023-04-07T07:59:37;9.20;31.10
26035;DHT22;13809;48.632;11.576;2023-04-07T08:04:41;9.40;30.70
26035;DHT22;13809;48.632;11.576;2023-04-07T08:09:46;9.60;30.60
26035;DHT22;13809;48.632;11.576;2023-04-07T08:14:49;9.80;30.90
26035;DHT22;13809;48.632;11.576;2023-04-07T08:19:52;10.00;29.70
26035;DHT22;13809;48.632;11.576;2023-04-07T08:24:56;10.20;29.70
26035;DHT22;13809;48.632;11.576;2023-04-07T08:30:00;10.40;30.00
26035;DHT22;13809;48.632;11.576;2023-04-07T08:35:05;10.50;29.70
26035;DHT22;13809;48.632;11.576;2023-04-07T08:40:10;10.70;29.60
26035;DHT22;13809;48.632;11.576;2023-04-07T08:45:15;10.90;29.80
26035;DHT22;13809;48.632;11.576;2023-04-07T08:50:19;11.00;29.70
26035;DHT22;13809;48.632;11.576;2023-04-07T08:55:24;11.20;29.60
26035;DHT22;13809;48.632;11.576;2023-04-07T09:00:28;11.40;29.80
26035;DHT22;13809;48.632;11.576;2023-04-07T09:05:32;11.60;29.50
26035;DHT22;13809;48.632;11.576;2023-04-07T09:10:37;11.70;29.50
26035;DHT22;13809;48.632;11.576;2023-04-07T09:15:41;11.90;29.60
26035;DHT22;13809;48.632;11.576;2023-04-07T09:20:57;12.00;29.70
26035;DHT22;13809;48.632;11.576;2023-04-07T09:26:19;12.20;29.80
26035;DHT22;13809;48.632;11.576;2023-04-07T09:31:37;12.40;30.00
26035;DHT22;13809;48.632;11.576;2023-04-07T09:36:45;12.50;29.60
26035;DHT22;13809;48.632;11.576;2023-04-07T09:41:49;12.60;29.30
26035;DHT22;13809;48.632;11.576;2023-04-07T09:46:54;12.80;29.30
26035;DHT22;13809;48.632;11.576;2023-04-07T09:51:59;12.90;29.30
26035;DHT22;13809;48.632;11.576;2023-04-07T09:57:08;13.00;29.10
26035;DHT22;13809;48.632;11.576;2023-04-07T10:02:11;13.20;29.10
26035;DHT22;13809;48.632;11.576;2023-04-07T10:07:14;13.30;28.80
26035;DHT22;13809;48.632;11.576;2023-04-07T10:12:19;13.40;28.70
26035;DHT22;13809;48.632;11.576;2023-04-07T10:17:23;13.50;28.60
26035;DHT22;13809;48.632;11.576;2023-04-07T10:22:27;13.60;28.60
26035;DHT22;13809;48.632;11.576;2023-04-07T10:27:36;13.70;28.70
26035;DHT22;13809;48.632;11.576;2023-04-07T10:32:45;13.80;28.40
26035;DHT22;13809;48.632;11.576;2023-04-07T10:38:11;13.90;28.50
26035;DHT22;13809;48.632;11.576;2023-04-07T10:43:36;14.00;28.40
26035;DHT22;13809;48.632;11.576;2023-04-07T10:48:40;14.00;28.20
26035;DHT22;13809;48.632;11.576;2023-04-07T10:59:22;14.10;28.00
26035;DHT22;13809;48.632;11.576;2023-04-07T11:04:35;14.20;28.00
26035;DHT22;13809;48.632;11.576;2023-04-07T11:09:39;14.20;27.90
26035;DHT22;13809;48.632;11.576;2023-04-07T11:14:44;14.30;28.10
26035;DHT22;13809;48.632;11.576;2023-04-07T11:19:52;14.30;27.90
26035;DHT22;13809;48.632;11.576;2023-04-07T11:25:00;14.30;27.70
26035;DHT22;13809;48.632;11.576;2023-04-07T11:30:09;14.40;27.70
26035;DHT22;13809;48.632;11.576;2023-04-07T11:35:13;14.50;27.60
26035;DHT22;13809;48.632;11.576;2023-04-07T11:40:30;14.60;27.70
26035;DHT22;13809;48.632;11.576;2023-04-07T11:45:36;14.60;28.10
26035;DHT22;13809;48.632;11.576;2023-04-07T11:50:40;14.70;27.60
26035;DHT22;13809;48.632;11.576;2023-04-07T11:55:44;14.70;27.60
26035;DHT22;13809;48.632;11.576;2023-04-07T12:00:55;14.80;27.50
26035;DHT22;13809;48.632;11.576;2023-04-07T12:05:59;14.80;26.90
26035;DHT22;13809;48.632;11.576;2023-04-07T12:11:03;14.80;27.30
26035;DHT22;13809;48.632;11.576;2023-04-07T12:16:07;14.80;27.20
26035;DHT22;13809;48.632;11.576;2023-04-07T12:21:11;14.90;27.20
26035;DHT22;13809;48.632;11.576;2023-04-07T12:26:14;15.00;27.40
26035;DHT22;13809;48.632;11.576;2023-04-07T12:31:18;15.20;27.40
26035;DHT22;13809;48.632;11.576;2023-04-07T12:36:22;15.20;27.00
26035;DHT22;13809;48.632;11.576;2023-04-07T12:41:25;15.30;27.10
26035;DHT22;13809;48.632;11.576;2023-04-07T12:46:30;15.30;27.00
26035;DHT22;13809;48.632;11.576;2023-04-07T12:51:33;15.30;26.90
26035;DHT22;13809;48.632;11.576;2023-04-07T12:56:36;15.30;27.00
26035;DHT22;13809;48.632;11.576;2023-04-07T13:01:42;15.30;27.20
26035;DHT22;13809;48.632;11.576;2023-04-07T13:06:45;15.30;27.30
26035;DHT22;13809;48.632;11.576;2023-04-07T13:11:48;15.30;27.20
26035;DHT22;13809;48.632;11.576;2023-04-07T13:16:53;15.30;27.30
26035;DHT22;13809;48.632;11.576;2023-04-07T13:21:56;15.30;27.10
26035;DHT22;13809;48.632;11.576;2023-04-07T13:27:00;15.30;27.10
26035;DHT22;13809;48.632;11.576;2023-04-07T13:32:05;15.30;27.00
26035;DHT22;13809;48.632;11.576;2023-04-07T13:37:09;15.30;26.90
26035;DHT22;13809;48.632;11.576;2023-04-07T13:42:13;15.30;26.90
26035;DHT22;13809;48.632;11.576;2023-04-07T13:47:19;15.30;26.90
26035;DHT22;13809;48.632;11.576;2023-04-07T13:52:23;15.30;27.00
26035;DHT22;13809;48.632;11.576;2023-04-07T13:57:27;15.30;27.10
26035;DHT22;13809;48.632;11.576;2023-04-07T14:02:31;15.40;27.70
26035;DHT22;13809;48.632;11.576;2023-04-07T14:07:35;15.50;26.90
26035;DHT22;13809;48.632;11.576;2023-04-07T14:12:38;15.50;26.90
26035;DHT22;13809;48.632;11.576;2023-04-07T14:17:43;15.60;26.80
26035;DHT22;13809;48.632;11.576;2023-04-07T14:22:46;15.60;26.70
26035;DHT22;13809;48.632;11.576;2023-04-07T14:27:50;15.60;26.70
26035;DHT22;13809;48.632;11.576;2023-04-07T14:32:54;15.60;26.60
26035;DHT22;13809;48.632;11.576;2023-04-07T14:37:58;15.60;26.40
26035;DHT22;13809;48.632;11.576;2023-04-07T14:43:01;15.60;26.40
26035;DHT22;13809;48.632;11.576;2023-04-07T14:48:09;15.60;26.30
26035;DHT22;13809;48.632;11.576;2023-04-07T14:53:14;15.60;26.40
26035;DHT22;13809;48.632;11.576;2023-04-07T14:58:17;15.60;26.40
26035;DHT22;13809;48.632;11.576;2023-04-07T15:03:22;15.50;26.30
26035;DHT22;13809;48.632;11.576;2023-04-07T15:08:26;15.40;26.30
26035;DHT22;13809;48.632;11.576;2023-04-07T15:13:29;15.40;26.40
26035;DHT22;13809;48.632;11.576;2023-04-07T15:18:33;15.40;26.40
26035;DHT22;13809;48.632;11.576;2023-04-07T15:23:37;15.40;26.40
26035;DHT22;13809;48.632;11.576;2023-04-07T15:28:42;15.40;26.40
26035;DHT22;13809;48.632;11.576;2023-04-07T15:33:47;15.30;26.40
26035;DHT22;13809;48.632;11.576;2023-04-07T15:38:50;15.30;26.30
26035;DHT22;13809;48.632;11.576;2023-04-07T15:43:53;15.20;26.30
26035;DHT22;13809;48.632;11.576;2023-04-07T15:49:00;15.20;26.40
26035;DHT22;13809;48.632;11.576;2023-04-07T15:54:03;15.20;26.40
26035;DHT22;13809;48.632;11.576;2023-04-07T15:59:07;15.20;26.90
26035;DHT22;13809;48.632;11.576;2023-04-07T16:04:11;15.30;26.30
26035;DHT22;13809;48.632;11.576;2023-04-07T16:09:15;15.30;26.40
26035;DHT22;13809;48.632;11.576;2023-04-07T16:14:18;15.30;26.30
26035;DHT22;13809;48.632;11.576;2023-04-07T16:19:22;15.30;26.40
26035;DHT22;13809;48.632;11.576;2023-04-07T16:24:26;15.30;26.30
26035;DHT22;13809;48.632;11.576;2023-04-07T16:29:29;15.30;26.40
26035;DHT22;13809;48.632;11.576;2023-04-07T16:34:33;15.30;26.40
26035;DHT22;13809;48.632;11.576;2023-04-07T16:39:36;15.30;26.50
26035;DHT22;13809;48.632;11.576;2023-04-07T16:44:39;15.30;26.50
26035;DHT22;13809;48.632;11.576;2023-04-07T16:49:44;15.30;26.40
26035;DHT22;13809;48.632;11.576;2023-04-07T16:54:47;15.30;26.40
26035;DHT22;13809;48.632;11.576;2023-04-07T16:59:50;15.30;26.40
26035;DHT22;13809;48.632;11.576;2023-04-07T17:04:55;15.20;26.30
26035;DHT22;13809;48.632;11.576;2023-04-07T17:09:58;15.20;26.40
26035;DHT22;13809;48.632;11.576;2023-04-07T17:15:01;15.10;26.40
26035;DHT22;13809;48.632;11.576;2023-04-07T17:20:07;15.10;26.40
26035;DHT22;13809;48.632;11.576;2023-04-07T17:25:11;15.00;26.60
26035;DHT22;13809;48.632;11.576;2023-04-07T17:30:14;14.80;26.70
26035;DHT22;13809;48.632;11.576;2023-04-07T17:35:20;14.70;26.50
26035;DHT22;13809;48.632;11.576;2023-04-07T17:40:23;14.60;26.60
26035;DHT22;13809;48.632;11.576;2023-04-07T17:45:26;14.50;26.60
26035;DHT22;13809;48.632;11.576;2023-04-07T17:50:31;14.50;26.80
26035;DHT22;13809;48.632;11.576;2023-04-07T17:55:34;14.40;27.40
26035;DHT22;13809;48.632;11.576;2023-04-07T18:00:37;14.40;26.90
26035;DHT22;13809;48.632;11.576;2023-04-07T18:05:44;14.30;26.90
26035;DHT22;13809;48.632;11.576;2023-04-07T18:10:47;14.20;27.10
26035;DHT22;13809;48.632;11.576;2023-04-07T18:15:50;14.20;27.00
26035;DHT22;13809;48.632;11.576;2023-04-07T18:20:55;14.10;27.10
26035;DHT22;13809;48.632;11.576;2023-04-07T18:26:01;14.00;27.20
26035;DHT22;13809;48.632;11.576;2023-04-07T18:31:05;13.90;27.40
26035;DHT22;13809;48.632;11.576;2023-04-07T18:36:10;13.90;27.30
26035;DHT22;13809;48.632;11.576;2023-04-07T18:41:15;13.80;27.40
26035;DHT22;13809;48.632;11.576;2023-04-07T18:46:18;13.80;27.30
26035;DHT22;13809;48.632;11.576;2023-04-07T18:51:22;13.70;27.40
26035;DHT22;13809;48.632;11.576;2023-04-07T18:56:26;13.70;27.50
26035;DHT22;13809;48.632;11.576;2023-04-07T19:01:30;13.60;27.40
26035;DHT22;13809;48.632;11.576;2023-04-07T19:06:35;13.60;27.50
26035;DHT22;13809;48.632;11.576;2023-04-07T19:11:38;13.50;27.50
26035;DHT22;13809;48.632;11.576;2023-04-07T19:16:42;13.40;27.40
26035;DHT22;13809;48.632;11.576;2023-04-07T19:21:46;13.40;27.40
26035;DHT22;13809;48.632;11.576;2023-04-07T19:26:50;13.20;27.40
26035;DHT22;13809;48.632;11.576;2023-04-07T19:31:53;13.00;27.30
26035;DHT22;13809;48.632;11.576;2023-04-07T19:36:59;12.90;27.40
26035;DHT22;13809;48.632;11.576;2023-04-07T19:42:02;12.70;27.50
26035;DHT22;13809;48.632;11.576;2023-04-07T19:47:06;12.60;27.40
26035;DHT22;13809;48.632;11.576;2023-04-07T19:52:10;12.60;27.60
26035;DHT22;13809;48.632;11.576;2023-04-07T19:57:13;12.50;27.60
26035;DHT22;13809;48.632;11.576;2023-04-07T20:02:17;12.40;27.40
26035;DHT22;13809;48.632;11.576;2023-04-07T20:07:21;12.20;27.30
26035;DHT22;13809;48.632;11.576;2023-04-07T20:12:24;12.00;27.60
26035;DHT22;13809;48.632;11.576;2023-04-07T20:17:27;11.80;27.50
26035;DHT22;13809;48.632;11.576;2023-04-07T20:22:34;11.70;27.80
26035;DHT22;13809;48.632;11.576;2023-04-07T20:27:37;11.60;28.10
26035;DHT22;13809;48.632;11.576;2023-04-07T20:32:41;11.50;27.90
26035;DHT22;13809;48.632;11.576;2023-04-07T20:37:45;11.40;27.80
26035;DHT22;13809;48.632;11.576;2023-04-07T20:42:48;11.30;27.90
26035;DHT22;13809;48.632;11.576;2023-04-07T20:47:52;11.20;27.80
26035;DHT22;13809;48.632;11.576;2023-04-07T20:52:57;11.00;27.90
26035;DHT22;13809;48.632;11.576;2023-04-07T20:58:00;11.00;28.20
26035;DHT22;13809;48.632;11.576;2023-04-07T21:03:03;10.90;28.10
26035;DHT22;13809;48.632;11.576;2023-04-07T21:08:08;10.80;28.20
26035;DHT22;13809;48.632;11.576;2023-04-07T21:13:14;10.80;28.40
26035;DHT22;13809;48.632;11.576;2023-04-07T21:18:17;10.70;27.90
26035;DHT22;13809;48.632;11.576;2023-04-07T21:23:22;10.50;27.80
26035;DHT22;13809;48.632;11.576;2023-04-07T21:28:25;10.20;28.30
26035;DHT22;13809;48.632;11.576;2023-04-07T21:33:28;10.10;28.40
26035;DHT22;13809;48.632;11.576;2023-04-07T21:38:32;9.90;29.00
26035;DHT22;13809;48.632;11.576;2023-04-07T21:43:36;9.80;28.90
26035;DHT22;13809;48.632;11.576;2023-04-07T21:48:39;9.70;28.90
26035;DHT22;13809;48.632;11.576;2023-04-07T21:53:43;9.60;28.80
26035;DHT22;13809;48.632;11.576;2023-04-07T21:58:46;9.50;29.20
26035;DHT22;13809;48.632;11.576;2023-04-07T22:03:50;9.40;28.90
26035;DHT22;13809;48.632;11.576;2023-04-07T22:08:54;9.30;29.00
26035;DHT22;13809;48.632;11.576;2023-04-07T22:14:03;9.20;29.40
26035;DHT22;13809;48.632;11.576;2023-04-07T22:19:06;9.20;29.20
26035;DHT22;13809;48.632;11.576;2023-04-07T22:24:10;9.20;29.30
26035;DHT22;13809;48.632;11.576;2023-04-07T22:29:13;9.10;29.40
26035;DHT22;13809;48.632;11.576;2023-04-07T22:34:17;9.10;29.40
26035;DHT22;13809;48.632;11.576;2023-04-07T22:39:21;9.10;29.50
26035;DHT22;13809;48.632;11.576;2023-04-07T22:44:25;9.00;29.60
26035;DHT22;13809;48.632;11.576;2023-04-07T22:49:29;8.90;29.40
26035;DHT22;13809;48.632;11.576;2023-04-07T22:54:33;8.90;29.60
26035;DHT22;13809;48.632;11.576;2023-04-07T22:59:36;8.80;29.80
26035;DHT22;13809;48.632;11.576;2023-04-07T23:04:40;8.80;29.60
26035;DHT22;13809;48.632;11.576;2023-04-07T23:09:44;8.70;29.50
26035;DHT22;13809;48.632;11.576;2023-04-07T23:14:47;8.50;29.70
26035;DHT22;13809;48.632;11.576;2023-04-07T23:19:50;8.40;29.60
26035;DHT22;13809;48.632;11.576;2023-04-07T23:24:55;8.20;29.60
26035;DHT22;13809;48.632;11.576;2023-04-07T23:29:58;8.10;30.00
26035;DHT22;13809;48.632;11.576;2023-04-07T23:35:01;8.10;30.50
26035;DHT22;13809;48.632;11.576;2023-04-07T23:40:07;8.10;30.00
26035;DHT22;13809;48.632;11.576;2023-04-07T23:45:11;8.00;30.20
26035;DHT22;13809;48.632;11.576;2023-04-07T23:50:14;8.00;30.00
26035;DHT22;13809;48.632;11.576;2023-04-07T23:55:19;8.00;30.00
